createdAt,value
2023-02-17T00:01:30.713Z,124.72
2023-02-17T00:03:59.636Z,130.52
2023-02-17T00:06:30.103Z,133.65
2023-02-17T00:09:00.703Z,130.80
2023-02-17T00:11:29.381Z,129.05
2023-02-17T00:13:57.578Z,130.93
2023-02-17T00:16:27.778Z,127.68
2023-02-17T00:18:58.197Z,122.45
2023-02-17T00:21:28.479Z,124.47
2023-02-17T00:23:58.194Z,113.78
2023-02-17T00:26:27.910Z,120.93
2023-02-17T00:28:56.167Z,118.55
2023-02-17T00:31:25.108Z,119.43
2023-02-17T00:33:55.539Z,121.47
2023-02-17T00:36:24.556Z,115.35
2023-02-17T00:38:54.298Z,119.75
2023-02-17T00:41:23.411Z,118.82
2023-02-17T00:43:52.878Z,108.80
2023-02-17T00:46:23.899Z,121.50
2023-02-17T00:48:54.029Z,111.30
2023-02-17T00:51:22.555Z,109.25
2023-02-17T00:53:50.644Z,115.10
2023-02-17T00:56:18.807Z,111.97
2023-02-17T00:58:47.246Z,105.30
2023-02-17T01:01:17.507Z,103.82
2023-02-17T01:03:45.984Z,103.15
2023-02-17T01:06:33.858Z,102.07
2023-02-17T01:09:02.404Z,103.50
2023-02-17T01:11:32.924Z,95.40
2023-02-17T01:14:03.509Z,106.88
2023-02-17T01:16:35.320Z,96.70
2023-02-17T01:19:06.889Z,97.25
2023-02-17T01:21:35.860Z,96.53
2023-02-17T01:24:06.377Z,91.57
2023-02-17T01:26:39.310Z,102.13
2023-02-17T01:29:08.386Z,102.45
2023-02-17T01:31:38.584Z,95.93
2023-02-17T01:34:06.918Z,110.72
2023-02-17T01:36:38.696Z,108.97
2023-02-17T01:39:06.946Z,102.45
2023-02-17T01:41:34.933Z,104.20
2023-02-17T01:44:13.214Z,104.00
2023-02-17T01:46:44.113Z,109.22
2023-02-17T01:49:22.690Z,122.03
2023-02-17T01:51:53.939Z,126.57
2023-02-17T01:54:28.040Z,120.22
2023-02-17T01:56:58.388Z,116.82
2023-02-17T01:59:26.814Z,106.97
2023-02-17T02:02:01.933Z,126.65
2023-02-17T02:07:01.522Z,122.93
2023-02-17T02:09:36.203Z,158.90
2023-02-17T02:12:15.959Z,124.35
2023-02-17T02:14:46.726Z,127.32
2023-02-17T02:17:26.894Z,129.90
2023-02-17T02:20:13.953Z,140.70
2023-02-17T02:23:14.571Z,135.75
2023-02-17T02:26:12.134Z,138.65
2023-02-17T02:28:55.531Z,131.57
2023-02-17T02:31:34.114Z,148.13
2023-02-17T02:34:07.969Z,147.50
2023-02-17T02:36:41.072Z,151.93
2023-02-17T02:39:12.503Z,165.60
2023-02-17T02:41:43.658Z,160.02
2023-02-17T02:44:16.140Z,166.38
2023-02-17T02:46:44.530Z,159.95
2023-02-17T02:49:14.170Z,164.13
2023-02-17T02:51:50.919Z,157.60
2023-02-17T02:54:40.124Z,165.80
2023-02-17T02:57:31.346Z,162.85
2023-02-17T03:00:10.570Z,177.48
2023-02-17T03:02:46.106Z,188.98
2023-02-17T03:05:20.765Z,159.02
2023-02-17T03:07:54.439Z,173.95
2023-02-17T03:10:22.896Z,186.85
2023-02-17T03:12:51.435Z,178.05
2023-02-17T03:15:24.849Z,193.73
2023-02-17T03:17:53.095Z,180.82
2023-02-17T03:20:23.093Z,169.13
2023-02-17T03:22:51.968Z,169.55
2023-02-17T03:25:20.450Z,171.60
2023-02-17T03:27:48.604Z,174.82
2023-02-17T03:30:17.407Z,180.80
2023-02-17T03:32:45.636Z,170.82
2023-02-17T03:35:14.430Z,187.93
2023-02-17T03:37:44.214Z,161.95
2023-02-17T03:40:12.794Z,171.55
2023-02-17T03:42:40.985Z,170.20
2023-02-17T03:45:09.769Z,195.75
2023-02-17T03:47:37.933Z,157.07
2023-02-17T03:50:07.751Z,165.38
2023-02-17T03:52:35.826Z,181.52
2023-02-17T03:55:06.103Z,172.70
2023-02-17T03:57:34.825Z,184.38
2023-02-17T04:00:04.402Z,186.30
2023-02-17T04:02:43.994Z,184.20
2023-02-17T04:05:12.609Z,184.65
2023-02-17T04:07:40.666Z,177.35
2023-02-17T04:10:11.089Z,200.68
2023-02-17T04:12:39.322Z,200.57
2023-02-17T04:15:08.595Z,201.63
2023-02-17T04:17:38.171Z,195.48
2023-02-17T04:20:08.043Z,200.15
2023-02-17T04:22:36.059Z,199.85
2023-02-17T04:25:04.284Z,220.15
2023-02-17T04:27:34.017Z,208.85
2023-02-17T04:30:02.254Z,218.35
2023-02-17T04:32:30.967Z,211.25
2023-02-17T04:34:58.978Z,210.27
2023-02-17T04:37:27.244Z,213.95
2023-02-17T04:39:55.678Z,223.27
2023-02-17T04:42:23.724Z,237.07
2023-02-17T04:44:53.331Z,226.10
2023-02-17T04:47:21.725Z,247.43
2023-02-17T04:49:49.813Z,238.93
2023-02-17T04:52:18.032Z,255.70
2023-02-17T04:54:46.094Z,258.10
2023-02-17T04:57:14.407Z,274.40
2023-02-17T04:59:45.909Z,271.05
2023-02-17T05:02:15.494Z,253.90
2023-02-17T05:04:45.900Z,270.77
2023-02-17T05:07:14.436Z,221.48
2023-02-17T05:09:42.667Z,261.55
2023-02-17T05:12:11.085Z,270.80
2023-02-17T05:14:39.392Z,240.70
2023-02-17T05:17:07.579Z,246.07
2023-02-17T05:19:37.298Z,289.13
2023-02-17T05:22:05.580Z,273.70
2023-02-17T05:24:34.004Z,289.85
2023-02-17T05:27:02.104Z,293.50
2023-02-17T05:29:30.334Z,264.30
2023-02-17T05:31:58.405Z,297.00
2023-02-17T05:34:26.878Z,285.75
2023-02-17T05:36:56.665Z,282.13
2023-02-17T05:39:24.702Z,305.20
2023-02-17T05:41:53.318Z,306.00
2023-02-17T05:44:21.914Z,313.10
2023-02-17T05:46:50.179Z,274.67
2023-02-17T05:49:18.462Z,290.55
2023-02-17T05:51:46.612Z,306.15
2023-02-17T05:54:16.227Z,315.52
2023-02-17T05:56:44.443Z,265.05
2023-02-17T05:59:12.608Z,310.90
2023-02-17T06:01:41.071Z,276.48
2023-02-17T06:04:09.164Z,263.58
2023-02-17T06:06:37.480Z,256.88
2023-02-17T06:09:05.689Z,276.27
2023-02-17T06:11:35.192Z,268.98
2023-02-17T06:14:03.656Z,261.35
2023-02-17T06:16:31.993Z,244.57
2023-02-17T06:19:02.258Z,250.10
2023-02-17T06:21:30.838Z,219.38
2023-02-17T06:23:58.949Z,252.68
2023-02-17T06:26:27.362Z,245.68
2023-02-17T06:28:56.887Z,232.48
2023-02-17T06:31:24.995Z,215.07
2023-02-17T06:33:53.516Z,184.45
2023-02-17T06:36:21.586Z,199.85
2023-02-17T06:38:49.818Z,195.85
2023-02-17T06:41:18.028Z,209.55
2023-02-17T06:43:46.138Z,216.05
2023-02-17T06:46:15.769Z,181.93
2023-02-17T06:48:44.000Z,213.52
2023-02-17T06:51:12.044Z,214.10
2023-02-17T06:53:40.494Z,205.55
2023-02-17T06:56:08.883Z,191.30
2023-02-17T06:58:38.285Z,167.40
2023-02-17T07:01:08.801Z,153.18
2023-02-17T07:03:38.964Z,172.27
2023-02-17T07:06:07.797Z,170.73
2023-02-17T07:08:36.053Z,162.25
2023-02-17T07:11:07.113Z,185.45
2023-02-17T07:13:35.775Z,167.57
2023-02-17T07:16:04.584Z,180.73
2023-02-17T07:18:33.364Z,141.43
2023-02-17T07:21:02.810Z,153.27
2023-02-17T07:23:31.311Z,163.82
2023-02-17T07:26:03.198Z,139.82
2023-02-17T07:28:32.019Z,150.70
2023-02-17T07:31:06.626Z,104.43
2023-02-17T07:33:36.136Z,124.97
2023-02-17T07:36:09.310Z,128.57
2023-02-17T07:38:37.714Z,121.18
2023-02-17T07:41:07.220Z,112.15
2023-02-17T07:43:35.770Z,112.55
2023-02-17T07:46:05.968Z,113.03
2023-02-17T07:48:34.958Z,98.53
2023-02-17T07:51:07.180Z,117.03
2023-02-17T07:53:37.180Z,104.72
2023-02-17T07:56:06.177Z,104.38
2023-02-17T07:58:34.847Z,98.50
2023-02-17T08:01:07.727Z,92.93
2023-02-17T08:03:36.173Z,93.63
2023-02-17T08:06:05.342Z,85.32
2023-02-17T08:08:50.736Z,85.65
2023-02-17T08:11:38.214Z,68.30
2023-02-17T08:14:06.381Z,71.85
2023-02-17T08:16:34.529Z,72.40
2023-02-17T08:19:02.943Z,67.82
2023-02-17T08:21:31.058Z,65.75
2023-02-17T08:23:59.571Z,63.40
2023-02-17T08:26:29.132Z,62.58
2023-02-17T08:28:57.600Z,56.45
2023-02-17T08:31:27.874Z,45.28
2023-02-17T08:33:57.761Z,45.90
2023-02-17T08:36:26.344Z,49.78
2023-02-17T08:38:54.876Z,44.40
2023-02-17T08:41:25.047Z,40.30
2023-02-17T08:43:54.877Z,41.45
2023-02-17T08:46:23.425Z,32.50
2023-02-17T08:48:52.780Z,40.90
2023-02-17T08:51:23.953Z,32.90
2023-02-17T08:53:52.868Z,33.15
2023-02-17T08:56:21.400Z,31.08
2023-02-17T08:58:50.244Z,34.10
2023-02-17T09:01:20.467Z,29.33
2023-02-17T09:03:50.439Z,35.35
2023-02-17T09:06:19.639Z,31.73
2023-02-17T09:08:47.978Z,32.92
2023-02-17T09:11:17.459Z,33.72
2023-02-17T09:13:45.696Z,37.17
2023-02-17T09:16:14.145Z,37.20
2023-02-17T09:18:43.924Z,36.97
2023-02-17T09:21:14.181Z,35.67
2023-02-17T09:23:43.519Z,37.38
2023-02-17T09:26:14.034Z,39.78
2023-02-17T09:28:42.941Z,41.60
2023-02-17T09:31:12.896Z,38.95
2023-02-17T09:33:41.630Z,35.65
2023-02-17T09:36:13.991Z,41.75
2023-02-17T09:38:42.736Z,37.15
2023-02-17T09:41:19.985Z,41.22
2023-02-17T09:43:48.699Z,42.65
2023-02-17T09:46:24.865Z,36.88
2023-02-17T09:48:55.276Z,37.65
2023-02-17T09:51:31.561Z,39.00
2023-02-17T09:54:07.595Z,41.40
2023-02-17T09:56:40.240Z,37.22
2023-02-17T09:59:16.035Z,33.35
2023-02-17T10:01:45.578Z,34.10
2023-02-17T10:04:18.327Z,34.35
2023-02-17T10:06:52.867Z,33.70
2023-02-17T10:09:26.692Z,31.33
2023-02-17T10:12:02.263Z,33.47
2023-02-17T10:14:35.995Z,32.30
2023-02-17T10:17:09.280Z,32.03
2023-02-17T10:19:45.522Z,30.40
2023-02-17T10:22:19.406Z,28.05
2023-02-17T10:24:47.569Z,28.60
2023-02-17T10:27:41.425Z,27.60
2023-02-17T10:30:22.482Z,26.73
2023-02-17T10:33:04.386Z,28.70
2023-02-17T10:35:49.309Z,26.88
2023-02-17T10:38:27.684Z,26.65
2023-02-17T10:40:57.284Z,26.48
2023-02-17T10:43:30.115Z,25.65
2023-02-17T10:46:00.769Z,25.00
2023-02-17T10:48:36.255Z,25.58
2023-02-17T10:51:04.832Z,24.48
2023-02-17T10:53:37.524Z,26.00
2023-02-17T10:56:11.792Z,22.33
2023-02-17T10:58:49.759Z,25.55
2023-02-17T11:01:18.660Z,22.67
2023-02-17T11:03:46.946Z,25.52
2023-02-17T11:06:20.817Z,24.08
2023-02-17T11:08:55.347Z,22.55
2023-02-17T11:11:25.202Z,22.05
2023-02-17T11:14:11.805Z,23.38
2023-02-17T11:16:43.141Z,23.17
2023-02-17T11:19:23.553Z,18.48
2023-02-17T11:21:52.589Z,20.30
2023-02-17T11:24:22.806Z,21.08
2023-02-17T11:26:58.992Z,22.10
2023-02-17T11:29:28.170Z,18.58
2023-02-17T11:31:59.358Z,23.27
2023-02-17T11:34:30.585Z,23.05
2023-02-17T11:37:01.390Z,25.65
2023-02-17T11:39:31.405Z,20.17
2023-02-17T11:41:59.777Z,21.30
2023-02-17T11:44:29.666Z,19.08
2023-02-17T11:47:11.016Z,20.17
2023-02-17T11:50:39.001Z,22.20
2023-02-17T11:53:21.464Z,23.25
2023-02-17T11:56:07.735Z,21.35
2023-02-17T11:58:55.109Z,24.42
2023-02-17T12:01:40.495Z,21.42
2023-02-17T12:04:26.712Z,21.45
2023-02-17T12:07:15.680Z,23.30
2023-02-17T12:09:54.125Z,23.00
2023-02-17T12:12:31.626Z,22.77
2023-02-17T12:15:09.711Z,19.55
2023-02-17T12:17:47.638Z,21.60
2023-02-17T12:20:34.873Z,22.23
2023-02-17T12:23:15.337Z,21.45
2023-02-17T12:25:49.977Z,23.45
2023-02-17T12:28:41.462Z,22.23
2023-02-17T12:31:19.341Z,22.05
2023-02-17T12:33:57.610Z,21.35
2023-02-17T12:36:32.756Z,21.63
2023-02-17T12:39:05.183Z,19.73
2023-02-17T12:41:37.485Z,22.10
2023-02-17T12:44:13.991Z,20.48
2023-02-17T12:46:44.825Z,18.88
2023-02-17T12:49:17.795Z,19.50
2023-02-17T12:51:50.407Z,20.65
2023-02-17T12:54:24.478Z,15.55
2023-02-17T12:59:30.511Z,14.93
2023-02-17T13:02:03.348Z,12.30
2023-02-17T13:04:33.161Z,14.73
2023-02-17T13:07:21.231Z,12.75
2023-02-17T13:09:51.373Z,11.88
2023-02-17T13:12:40.622Z,12.23
2023-02-17T13:15:30.360Z,10.77
2023-02-17T13:18:03.254Z,12.30
2023-02-17T13:20:56.964Z,9.70
2023-02-17T13:23:35.028Z,14.63
2023-02-17T13:26:35.725Z,17.13
2023-02-17T13:29:22.484Z,14.82
2023-02-17T13:31:54.768Z,17.38
2023-02-17T13:34:33.418Z,18.38
2023-02-17T13:37:05.569Z,17.02
2023-02-17T13:39:39.099Z,15.80
2023-02-17T13:42:33.471Z,13.47
2023-02-17T13:45:02.578Z,15.43
2023-02-17T13:47:37.984Z,13.60
2023-02-17T13:50:08.257Z,12.68
2023-02-17T13:52:36.344Z,17.90
2023-02-17T13:55:07.328Z,11.75
2023-02-17T13:57:37.637Z,11.65
2023-02-17T14:00:09.302Z,12.13
2023-02-17T14:02:48.033Z,14.13
2023-02-17T14:05:21.158Z,15.40
2023-02-17T14:07:50.235Z,15.73
2023-02-17T14:10:24.548Z,12.75
2023-02-17T14:12:53.549Z,11.95
2023-02-17T14:15:24.317Z,10.57
2023-02-17T14:17:54.508Z,8.57
2023-02-17T14:20:30.936Z,11.30
2023-02-17T14:23:05.187Z,10.70
2023-02-17T14:25:36.041Z,9.50
2023-02-17T14:28:05.492Z,10.52
2023-02-17T14:30:36.127Z,11.07
2023-02-17T14:33:08.535Z,8.23
2023-02-17T14:35:39.303Z,8.93
2023-02-17T14:38:20.984Z,9.05
2023-02-17T14:40:49.236Z,8.90
2023-02-17T14:43:17.411Z,11.82
2023-02-17T14:45:45.755Z,9.93
2023-02-17T14:48:15.470Z,8.48
2023-02-17T14:50:44.941Z,9.70
2023-02-17T14:53:19.406Z,11.25
2023-02-17T14:55:51.448Z,8.32
2023-02-17T14:58:21.448Z,7.93
2023-02-17T15:00:50.137Z,6.57
2023-02-17T15:03:20.036Z,7.78
2023-02-17T15:05:48.540Z,7.03
2023-02-17T15:08:19.968Z,7.55
2023-02-17T15:10:48.233Z,6.57
2023-02-17T15:13:18.840Z,14.38
2023-02-17T15:15:49.247Z,9.15
2023-02-17T15:18:20.210Z,6.47
2023-02-17T15:20:50.600Z,5.05
2023-02-17T15:23:21.195Z,6.60
2023-02-17T15:25:50.034Z,9.35
2023-02-17T15:28:20.518Z,10.65
2023-02-17T15:30:52.607Z,9.50
2023-02-17T15:33:23.671Z,11.35
2023-02-17T15:35:54.776Z,10.00
2023-02-17T15:38:24.159Z,9.00
2023-02-17T15:40:52.642Z,7.45
2023-02-17T15:43:22.896Z,11.40
2023-02-17T15:45:51.100Z,10.95
2023-02-17T15:48:24.719Z,9.05
2023-02-17T15:50:53.007Z,10.35
2023-02-17T15:53:21.290Z,9.45
2023-02-17T15:55:50.081Z,12.25
2023-02-17T15:58:21.194Z,13.25
2023-02-17T16:00:50.294Z,13.65
2023-02-17T16:03:19.185Z,16.65
2023-02-17T16:05:49.634Z,10.63
2023-02-17T16:08:17.745Z,13.60
2023-02-17T16:10:47.084Z,13.77
2023-02-17T16:13:19.523Z,14.07
2023-02-17T16:15:48.742Z,19.23
2023-02-17T16:18:21.989Z,15.45
2023-02-17T16:20:52.374Z,16.33
2023-02-17T16:23:20.881Z,19.30
2023-02-17T16:25:51.110Z,16.90
2023-02-17T16:28:22.296Z,15.02
2023-02-17T16:30:51.721Z,14.27
2023-02-17T16:33:20.206Z,17.45
2023-02-17T16:35:50.862Z,16.40
2023-02-17T16:38:23.530Z,14.82
2023-02-17T16:40:54.890Z,19.77
2023-02-17T16:43:26.801Z,18.30
2023-02-17T16:45:57.323Z,15.43
2023-02-17T16:48:27.472Z,18.35
2023-02-17T16:50:56.124Z,19.38
2023-02-17T16:53:25.711Z,17.73
2023-02-17T16:55:56.138Z,15.93
2023-02-17T16:58:26.006Z,17.65
2023-02-17T17:00:56.378Z,19.92
2023-02-17T17:03:24.595Z,21.83
2023-02-17T17:05:53.672Z,15.80
2023-02-17T17:08:22.448Z,19.40
2023-02-17T17:10:51.899Z,18.27
2023-02-17T17:13:20.371Z,15.93
2023-02-17T17:15:48.818Z,18.95
2023-02-17T17:18:21.032Z,20.08
2023-02-17T17:20:49.543Z,18.98
2023-02-17T17:23:18.762Z,19.25
2023-02-17T17:25:48.705Z,17.60
2023-02-17T17:28:20.280Z,18.52
2023-02-17T17:30:48.919Z,23.10
2023-02-17T17:33:17.308Z,17.90
2023-02-17T17:35:45.533Z,15.18
2023-02-17T17:38:15.664Z,22.90
2023-02-17T17:40:53.318Z,25.10
2023-02-17T17:43:24.356Z,17.08
2023-02-17T17:45:53.032Z,17.73
2023-02-17T17:48:21.200Z,15.65
2023-02-17T17:50:50.537Z,15.48
2023-02-17T17:53:18.639Z,17.23
2023-02-17T17:55:48.254Z,19.30
2023-02-17T17:58:17.191Z,22.00
2023-02-17T18:00:46.895Z,21.60
2023-02-17T18:03:15.448Z,15.13
2023-02-17T18:05:43.604Z,22.95
2023-02-17T18:08:12.396Z,20.83
2023-02-17T18:10:42.436Z,19.95
2023-02-17T18:13:13.428Z,21.10
2023-02-17T18:15:43.024Z,23.77
2023-02-17T18:18:13.355Z,19.60
2023-02-17T18:20:41.750Z,25.05
2023-02-17T18:23:10.014Z,24.38
2023-02-17T18:25:38.388Z,17.35
2023-02-17T18:28:06.810Z,20.13
2023-02-17T18:30:35.381Z,21.15
2023-02-17T18:33:03.453Z,19.13
2023-02-17T18:35:35.760Z,23.85
2023-02-17T18:38:04.214Z,22.10
2023-02-17T18:40:32.776Z,20.00
2023-02-17T18:43:00.864Z,19.65
2023-02-17T18:45:29.078Z,20.40
2023-02-17T18:47:57.466Z,16.88
2023-02-17T18:50:25.972Z,20.73
2023-02-17T18:52:55.773Z,24.85
2023-02-17T18:55:23.785Z,24.88
2023-02-17T18:57:52.186Z,26.95
2023-02-17T19:00:20.669Z,26.38
2023-02-17T19:02:49.043Z,31.73
2023-02-17T19:05:18.390Z,26.15
2023-02-17T19:07:46.502Z,28.52
2023-02-17T19:10:16.706Z,28.30
2023-02-17T19:12:45.140Z,25.08
2023-02-17T19:15:16.441Z,26.52
2023-02-17T19:17:45.733Z,22.23
2023-02-17T19:20:14.715Z,26.42
2023-02-17T19:22:43.153Z,28.02
2023-02-17T19:25:11.451Z,24.58
2023-02-17T19:27:41.617Z,17.83
2023-02-17T19:30:10.966Z,21.98
2023-02-17T19:32:39.134Z,22.52
2023-02-17T19:35:10.572Z,22.17
2023-02-17T19:37:39.589Z,21.70
2023-02-17T19:40:09.371Z,22.60
2023-02-17T19:42:39.965Z,25.48
2023-02-17T19:45:10.107Z,23.80
2023-02-17T19:47:38.225Z,20.83
2023-02-17T19:50:07.795Z,24.02
2023-02-17T19:52:38.181Z,23.95
2023-02-17T19:55:06.896Z,26.95
2023-02-17T19:57:35.280Z,28.15
2023-02-17T20:00:04.215Z,22.83
2023-02-17T20:02:33.973Z,19.63
2023-02-17T20:05:02.394Z,25.23
2023-02-17T20:07:31.661Z,23.02
2023-02-17T20:10:00.113Z,23.35
2023-02-17T20:12:28.180Z,25.33
2023-02-17T20:14:57.416Z,26.85
2023-02-17T20:17:25.549Z,25.63
2023-02-17T20:19:55.168Z,26.15
2023-02-17T20:22:24.782Z,27.83
2023-02-17T20:24:52.809Z,24.75
2023-02-17T20:27:21.663Z,21.30
2023-02-17T20:29:49.754Z,23.98
2023-02-17T20:32:18.026Z,22.73
2023-02-17T20:34:46.413Z,23.35
2023-02-17T20:37:15.823Z,23.17
2023-02-17T20:39:44.169Z,18.83
2023-02-17T20:42:12.252Z,20.52
2023-02-17T20:44:40.390Z,24.38
2023-02-17T20:47:08.648Z,19.27
2023-02-17T20:49:37.131Z,25.17
2023-02-17T20:52:05.916Z,21.00
2023-02-17T20:54:35.756Z,20.83
2023-02-17T20:57:04.822Z,28.20
2023-02-17T20:59:33.230Z,25.95
2023-02-17T21:02:01.283Z,22.17
2023-02-17T21:04:29.576Z,25.17
2023-02-17T21:06:58.322Z,21.92
2023-02-17T21:09:27.437Z,18.60
2023-02-17T21:11:57.199Z,20.15
2023-02-17T21:14:25.259Z,26.95
2023-02-17T21:16:53.695Z,25.63
2023-02-17T21:19:22.086Z,22.13
2023-02-17T21:21:50.213Z,20.88
2023-02-17T21:24:18.665Z,21.42
2023-02-17T21:26:46.681Z,22.90
2023-02-17T21:29:16.353Z,21.02
2023-02-17T21:31:44.555Z,22.30
2023-02-17T21:34:12.822Z,23.48
2023-02-17T21:36:43.611Z,29.58
2023-02-17T21:39:11.653Z,24.35
2023-02-17T21:41:42.710Z,21.77
2023-02-17T21:44:30.532Z,21.77
2023-02-17T21:47:00.292Z,23.08
2023-02-17T21:49:28.393Z,25.30
2023-02-17T21:51:56.460Z,22.83
2023-02-17T21:54:24.689Z,14.52
2023-02-17T21:56:52.887Z,18.95
2023-02-17T21:59:21.329Z,21.00
2023-02-17T22:01:49.730Z,19.80
2023-02-17T22:04:19.403Z,19.27
2023-02-17T22:06:48.101Z,18.48
2023-02-17T22:09:18.143Z,21.98
2023-02-17T22:11:47.710Z,21.75
2023-02-17T22:14:17.812Z,22.63
2023-02-17T22:16:47.676Z,24.48
2023-02-17T22:19:21.934Z,20.08
2023-02-17T22:21:51.357Z,21.88
2023-02-17T22:24:21.491Z,17.73
2023-02-17T22:26:49.929Z,24.70
2023-02-17T22:29:18.235Z,20.60
2023-02-17T22:31:47.866Z,18.95
2023-02-17T22:34:16.217Z,18.08
2023-02-17T22:36:46.022Z,17.95
2023-02-17T22:39:14.096Z,19.83
2023-02-17T22:41:42.870Z,18.67
2023-02-17T22:44:12.149Z,20.50
2023-02-17T22:46:43.584Z,21.88
2023-02-17T22:49:11.898Z,14.55
2023-02-17T22:51:41.101Z,17.50
2023-02-17T22:54:10.718Z,22.80
2023-02-17T22:56:38.941Z,19.25
2023-02-17T22:59:07.669Z,20.45
2023-02-17T23:01:39.793Z,12.85
2023-02-17T23:04:08.480Z,16.90
2023-02-17T23:06:39.358Z,24.30
2023-02-17T23:09:09.485Z,15.02
2023-02-17T23:11:54.812Z,17.52
2023-02-17T23:14:28.609Z,18.48
2023-02-17T23:16:59.183Z,14.60
2023-02-17T23:19:27.876Z,20.13
2023-02-17T23:21:58.485Z,16.15
2023-02-17T23:24:27.655Z,15.13
2023-02-17T23:26:58.740Z,21.35
2023-02-17T23:29:27.086Z,14.48
2023-02-17T23:31:55.375Z,15.98
2023-02-17T23:34:23.562Z,18.55
2023-02-17T23:36:52.042Z,18.60
2023-02-17T23:39:20.475Z,16.45
2023-02-17T23:41:48.530Z,25.63
2023-02-17T23:44:18.917Z,19.80
2023-02-17T23:46:47.100Z,17.48
2023-02-17T23:49:16.584Z,17.05
2023-02-17T23:51:46.459Z,19.48
2023-02-17T23:54:14.701Z,17.08
2023-02-17T23:56:42.776Z,19.75
2023-02-17T23:59:11.760Z,15.98
